Time;durP1;ratioP1;P1;durP2;ratioP2;P2;SDS_P1;SDS_P2;PMS_P1;PMS_P2;Temp;Humidity;BMP_temperature;BMP_pressure;BME280_temperature;BME280_humidity;BME280_pressure;Samples;Min_cycle;Max_cycle;Signal;HPM_P1;HPM_P2
2022/10/08 00:04:34;;;;;;;11.30;8.80;;;;;;;12.57;78.36;100130.76;214694;1276;142617;-64
2022/10/08 00:09:37;;;;;;;11.10;10.00;;;;;;;12.49;78.65;100123.98;214359;1276;141653;-65
2022/10/08 00:14:39;;;;;;;18.60;12.70;;;;;;;12.45;78.49;100115.43;215401;1276;141342;-67
2022/10/08 00:19:42;;;;;;;13.20;11.20;;;;;;;12.38;78.51;100118.46;215227;1276;142258;-64
2022/10/08 00:24:45;;;;;;;18.80;13.80;;;;;;;12.34;78.86;100106.40;215550;1276;143773;-68
2022/10/08 00:29:47;;;;;;;15.20;11.10;;;;;;;12.32;78.66;100103.64;214249;1276;142177;-65
2022/10/08 00:34:50;;;;;;;14.30;11.70;;;;;;;12.30;79.00;100098.88;215264;1276;141348;-66
2022/10/08 00:39:52;;;;;;;16.50;10.20;;;;;;;12.25;78.90;100097.33;215314;1276;140971;-67
2022/10/08 00:44:57;;;;;;;14.20;12.00;;;;;;;12.18;79.02;100085.52;214717;1276;140722;-65
2022/10/08 00:50:08;;;;;;;14.50;12.40;;;;;;;12.13;79.04;100080.60;215073;1276;142477;-66
2022/10/08 00:55:12;;;;;;;16.00;12.70;;;;;;;12.13;79.09;100073.27;215437;1276;142413;-66
2022/10/08 01:00:24;;;;;;;21.10;12.10;;;;;;;12.15;79.18;100064.77;215608;1276;142104;-66
2022/10/08 01:05:38;;;;;;;14.60;12.30;;;;;;;12.21;79.25;100063.27;215443;1276;141663;-67
2022/10/08 01:10:54;;;;;;;11.40;9.20;;;;;;;12.21;79.35;100055.80;215358;1276;141515;-66
2022/10/08 01:16:05;;;;;;;13.50;10.80;;;;;;;12.18;79.57;100052.84;212761;1276;142057;-65
2022/10/08 01:21:09;;;;;;;20.00;15.80;;;;;;;12.16;79.68;100047.52;215558;1276;141343;-66
2022/10/08 01:26:33;;;;;;;19.90;13.70;;;;;;;12.20;80.01;100043.59;215469;1276;143507;-66
2022/10/08 01:31:45;;;;;;;20.40;14.10;;;;;;;12.29;80.18;100046.53;215297;1275;142875;-66
2022/10/08 01:36:51;;;;;;;17.70;13.10;;;;;;;12.37;80.26;100042.41;215112;1276;142755;-67
2022/10/08 01:41:58;;;;;;;21.80;15.90;;;;;;;12.41;80.31;100036.83;215480;1276;141788;-67
2022/10/08 01:47:05;;;;;;;16.90;13.50;;;;;;;12.46;80.40;100032.33;215309;1276;142353;-68
2022/10/08 01:52:24;;;;;;;22.20;13.20;;;;;;;12.51;80.40;100031.02;212529;1276;142752;-66
2022/10/08 01:57:29;;;;;;;18.70;14.50;;;;;;;12.55;80.56;100025.30;215503;1275;152892;-70
2022/10/08 02:02:32;;;;;;;17.30;14.50;;;;;;;12.57;80.70;100024.04;215505;1276;140921;-69
2022/10/08 02:07:41;;;;;;;21.10;14.30;;;;;;;12.65;80.55;100019.91;215306;1276;141352;-69
2022/10/08 02:12:44;;;;;;;22.20;14.70;;;;;;;12.76;80.72;100016.90;215466;1276;142032;-68
2022/10/08 02:18:05;;;;;;;21.00;13.20;;;;;;;12.83;80.89;100011.19;215714;1276;141662;-69
2022/10/08 02:23:19;;;;;;;19.00;13.80;;;;;;;12.92;80.69;100009.98;215297;1276;141351;-68
2022/10/08 02:28:49;;;;;;;16.90;10.80;;;;;;;13.01;80.79;100009.55;214781;1274;141192;-66
2022/10/08 02:34:03;;;;;;;17.20;12.70;;;;;;;13.10;80.88;100008.79;215138;1276;142283;-66
2022/10/08 02:39:07;;;;;;;15.90;13.10;;;;;;;13.19;80.61;100001.00;213371;1276;143418;-68
2022/10/08 02:44:21;;;;;;;18.10;13.90;;;;;;;13.21;80.68;99996.82;215472;1276;141582;-66
2022/10/08 02:49:30;;;;;;;20.80;13.20;;;;;;;13.27;80.55;99996.10;215247;1276;142842;-63
2022/10/08 02:54:37;;;;;;;15.80;12.20;;;;;;;13.32;80.70;99993.13;215199;1276;142344;-66
2022/10/08 02:59:41;;;;;;;12.50;11.00;;;;;;;13.40;80.58;99997.38;215207;1277;140428;-66
2022/10/08 03:04:53;;;;;;;20.10;13.10;;;;;;;13.46;80.48;99998.67;215252;1276;141469;-65
2022/10/08 03:09:58;;;;;;;14.70;12.60;;;;;;;13.54;80.56;99993.63;215534;1273;141109;-65
2022/10/08 03:15:03;;;;;;;21.40;12.70;;;;;;;13.64;80.56;99991.48;215525;1275;142868;-66
2022/10/08 03:20:08;;;;;;;15.20;11.20;;;;;;;13.66;80.22;99990.43;215373;1276;143624;-65
2022/10/08 03:25:11;;;;;;;21.10;10.30;;;;;;;13.68;80.21;99987.98;215654;1275;140634;-66
2022/10/08 03:30:13;;;;;;;14.30;11.30;;;;;;;13.71;80.05;99989.48;215588;1275;141165;-66
2022/10/08 03:35:18;;;;;;;15.10;11.80;;;;;;;13.73;80.03;99990.27;215621;1275;141075;-66
2022/10/08 03:40:21;;;;;;;14.30;9.90;;;;;;;13.82;80.03;99987.45;215252;1273;141884;-66
2022/10/08 03:45:23;;;;;;;15.30;11.80;;;;;;;13.88;79.98;99989.81;215662;1276;140528;-66
2022/10/08 03:50:26;;;;;;;15.90;11.90;;;;;;;13.88;79.83;99993.27;215756;1275;139945;-66
2022/10/08 03:55:29;;;;;;;13.30;11.30;;;;;;;13.93;79.80;99990.38;215657;1275;141240;-66
2022/10/08 04:00:31;;;;;;;26.00;10.60;;;;;;;13.96;79.72;99991.48;215399;1276;151781;-66
2022/10/08 04:05:34;;;;;;;10.10;9.10;;;;;;;13.94;79.58;99994.09;214592;1276;140449;-66
2022/10/08 04:10:39;;;;;;;13.20;11.90;;;;;;;13.93;79.60;99991.13;215596;1275;140270;-66
2022/10/08 04:15:41;;;;;;;16.00;10.90;;;;;;;13.93;79.51;99991.23;215663;1276;140897;-66
2022/10/08 04:20:44;;;;;;;17.40;11.70;;;;;;;13.89;79.50;99989.36;215585;1275;141259;-66
2022/10/08 04:25:51;;;;;;;15.70;11.90;;;;;;;13.92;79.52;99991.23;214388;1276;140822;-68
2022/10/08 04:30:56;;;;;;;;;;;;;;;13.94;79.48;99990.59;214130;1275;141039;-67
2022/10/08 04:36:00;;;;;;;15.40;12.20;;;;;;;13.89;79.45;99988.34;216239;1276;127540;-67
2022/10/08 04:41:05;;;;;;;18.40;12.90;;;;;;;13.84;79.52;99989.30;212569;1276;141427;-65
2022/10/08 04:46:10;;;;;;;13.00;11.10;;;;;;;13.84;79.83;99989.24;215598;1276;141688;-66
2022/10/08 04:51:14;;;;;;;14.30;10.80;;;;;;;13.87;79.65;99988.36;215363;1275;144190;-66
2022/10/08 04:56:22;;;;;;;13.70;10.60;;;;;;;13.89;79.75;99991.40;215043;1277;142295;-66
2022/10/08 05:01:27;;;;;;;17.80;12.20;;;;;;;13.90;79.51;99995.42;215302;1276;141696;-66
2022/10/08 05:06:32;;;;;;;16.10;12.60;;;;;;;13.91;79.36;99987.99;214207;1276;142367;-66
2022/10/08 05:11:35;;;;;;;14.90;11.70;;;;;;;13.91;79.54;99981.56;215496;1276;141131;-67
2022/10/08 05:16:37;;;;;;;13.50;12.00;;;;;;;13.91;79.68;99980.98;215478;1276;140795;-66
2022/10/08 05:21:39;;;;;;;15.50;12.50;;;;;;;13.96;79.71;99980.12;215532;1276;142292;-67
2022/10/08 05:26:40;;;;;;;17.20;11.30;;;;;;;14.02;79.37;99983.30;215467;1276;140872;-66
2022/10/08 05:32:00;;;;;;;14.30;11.30;;;;;;;14.00;79.33;99984.69;215755;1276;141184;-66
2022/10/08 05:37:03;;;;;;;12.00;10.20;;;;;;;13.99;79.57;99986.59;215391;1276;141406;-66
2022/10/08 05:42:06;;;;;;;15.00;10.50;;;;;;;14.00;79.53;99995.17;215690;1276;141991;-66
2022/10/08 05:47:08;;;;;;;16.10;12.30;;;;;;;14.02;79.60;99995.80;215631;1276;141609;-63
2022/10/08 05:52:10;;;;;;;19.70;12.60;;;;;;;14.10;79.43;100000.70;215726;1276;141509;-66
2022/10/08 05:57:12;;;;;;;26.50;12.20;;;;;;;14.12;79.54;99999.21;215399;1276;141969;-66
2022/10/08 06:02:15;;;;;;;14.20;12.40;;;;;;;14.13;79.45;100001.70;215549;1275;141268;-67
2022/10/08 06:07:17;;;;;;;16.90;13.40;;;;;;;14.14;79.15;100003.85;215427;1276;143244;-66
2022/10/08 06:12:20;;;;;;;13.10;11.60;;;;;;;14.12;79.26;100001.89;215598;1276;142012;-65
2022/10/08 06:17:22;;;;;;;14.00;11.70;;;;;;;14.10;79.15;99997.16;215190;1275;141247;-66
2022/10/08 06:22:25;;;;;;;15.80;12.00;;;;;;;14.07;79.22;99997.17;215800;1273;140017;-66
2022/10/08 06:27:28;;;;;;;14.30;12.00;;;;;;;14.11;79.43;99998.73;214151;1276;141783;-66
2022/10/08 06:32:30;;;;;;;16.60;10.90;;;;;;;14.24;79.43;100003.16;214471;1276;142298;-66
2022/10/08 06:37:32;;;;;;;10.30;8.80;;;;;;;14.35;79.63;100005.48;215689;1276;142077;-66
2022/10/08 06:42:35;;;;;;;14.40;12.40;;;;;;;14.38;79.24;100003.25;215416;1276;140958;-66
2022/10/08 06:47:37;;;;;;;20.50;12.00;;;;;;;14.45;79.34;100001.20;214679;1276;142233;-66
2022/10/08 06:52:40;;;;;;;10.30;9.30;;;;;;;14.55;79.17;100004.30;215248;1276;141935;-66
2022/10/08 06:57:42;;;;;;;12.00;10.80;;;;;;;14.70;78.90;100005.83;215548;1276;142508;-67
2022/10/08 07:02:46;;;;;;;13.90;9.20;;;;;;;14.74;78.86;100005.05;214259;1276;142585;-66
2022/10/08 07:07:48;;;;;;;10.60;9.60;;;;;;;14.88;78.74;100009.22;212589;1276;153509;-66
2022/10/08 07:12:51;;;;;;;12.10;10.60;;;;;;;15.09;78.67;100010.44;215023;1276;141705;-66
2022/10/08 07:17:53;;;;;;;14.20;10.80;;;;;;;15.60;78.86;99996.64;212717;1276;142802;-66
2022/10/08 07:22:56;;;;;;;13.60;11.00;;;;;;;16.23;78.39;99989.95;215757;1275;141174;-66
2022/10/08 07:27:58;;;;;;;10.70;9.20;;;;;;;16.62;77.42;99986.64;215696;1275;142531;-67
2022/10/08 07:33:00;;;;;;;14.30;10.30;;;;;;;17.24;77.41;99983.00;215834;1275;141519;-67
2022/10/08 07:38:02;;;;;;;14.80;10.30;;;;;;;17.62;76.10;99980.11;215585;1276;141017;-67
2022/10/08 07:43:05;;;;;;;16.50;11.50;;;;;;;17.97;75.39;99977.45;215570;1276;141355;-67
2022/10/08 07:48:08;;;;;;;13.80;10.20;;;;;;;18.24;74.87;99976.00;215623;1276;142267;-67
2022/10/08 07:53:15;;;;;;;14.40;7.90;;;;;;;18.59;74.46;99976.10;215601;1276;142669;-67
2022/10/08 07:58:18;;;;;;;10.00;8.90;;;;;;;18.79;73.29;99976.23;215407;1275;141493;-66
2022/10/08 08:03:23;;;;;;;8.60;7.80;;;;;;;18.94;72.77;99980.87;215733;1276;141980;-67
2022/10/08 08:08:26;;;;;;;13.70;11.00;;;;;;;19.07;72.12;99982.79;213645;1276;141535;-67
2022/10/08 08:13:33;;;;;;;10.70;8.60;;;;;;;19.17;71.91;99976.00;214489;1277;141612;-67
2022/10/08 08:18:42;;;;;;;11.40;10.20;;;;;;;19.16;71.10;99980.45;215732;1276;141965;-67
2022/10/08 08:23:49;;;;;;;16.40;10.20;;;;;;;19.28;71.48;99980.91;215469;1276;140606;-67
2022/10/08 08:28:55;;;;;;;13.30;11.50;;;;;;;19.49;70.70;99981.36;214674;1276;141037;-66
2022/10/08 08:34:04;;;;;;;11.60;10.00;;;;;;;19.58;70.54;99980.83;215104;1276;140754;-67
2022/10/08 08:39:09;;;;;;;11.90;10.20;;;;;;;19.62;69.84;99982.28;214429;1274;142314;-67
2022/10/08 08:44:23;;;;;;;11.60;9.50;;;;;;;19.67;69.53;99985.64;215150;1275;142020;-67
2022/10/08 08:49:41;;;;;;;10.30;9.30;;;;;;;19.66;69.19;99986.09;213214;1276;141216;-68
2022/10/08 08:54:52;;;;;;;14.30;11.00;;;;;;;19.80;69.01;99989.33;215443;1276;142969;-68
2022/10/08 08:59:59;;;;;;;12.10;10.20;;;;;;;19.86;68.53;99988.29;215732;1276;141708;-68
2022/10/08 09:05:11;;;;;;;14.60;9.10;;;;;;;19.89;68.47;99986.73;213548;1276;141496;-67
2022/10/08 09:10:28;;;;;;;21.00;11.40;;;;;;;19.99;67.98;99990.00;215071;1277;141494;-67
2022/10/08 09:15:35;;;;;;;12.60;11.20;;;;;;;19.86;67.78;99987.25;215600;1276;141692;-69
2022/10/08 09:20:38;;;;;;;12.80;11.50;;;;;;;19.84;67.80;99991.30;213906;1276;140913;-68
2022/10/08 09:25:47;;;;;;;12.40;10.10;;;;;;;19.86;68.02;99985.04;215716;1276;142441;-68
2022/10/08 09:30:48;;;;;;;16.10;10.20;;;;;;;19.96;67.63;99981.60;215681;1276;142263;-68
2022/10/08 09:35:52;;;;;;;11.60;10.50;;;;;;;20.15;67.85;99977.30;215962;1276;141997;-68
2022/10/08 09:41:15;;;;;;;13.50;9.40;;;;;;;20.48;67.81;99975.53;215719;1276;141831;-68
2022/10/08 09:46:32;;;;;;;14.50;10.70;;;;;;;20.97;67.29;99972.64;213515;1315;636325;-68
2022/10/08 09:51:36;;;;;;;10.30;9.30;;;;;;;21.13;66.44;99964.40;213130;1288;139605;-67
2022/10/08 09:56:40;;;;;;;13.60;11.80;;;;;;;21.15;66.11;99959.40;213156;1286;281204;-68
2022/10/08 10:01:46;;;;;;;10.80;8.90;;;;;;;21.29;65.90;99949.75;213806;1285;139430;-67
2022/10/08 10:06:52;;;;;;;;;;;;;;;21.47;66.10;99954.31;213665;1286;139451;-67
2022/10/08 10:12:04;;;;;;;9.20;8.30;;;;;;;21.65;65.53;99947.69;214455;1285;125937;-68
2022/10/08 10:17:19;;;;;;;14.70;8.90;;;;;;;21.76;65.08;99948.17;213766;1286;139710;-67
2022/10/08 10:22:34;;;;;;;12.10;8.80;;;;;;;21.82;64.13;99941.92;213846;1285;139836;-68
2022/10/08 10:27:44;;;;;;;8.50;7.40;;;;;;;21.80;63.48;99948.47;212571;1284;138918;-68
2022/10/08 10:33:11;;;;;;;9.50;7.50;;;;;;;21.78;63.41;99945.92;213689;1285;138791;-68
2022/10/08 10:38:22;;;;;;;8.30;6.90;;;;;;;22.01;63.56;99936.55;213598;1285;139312;-68
2022/10/08 10:43:48;;;;;;;11.90;8.00;;;;;;;22.16;62.78;99933.77;212910;1285;138859;-68
2022/10/08 10:48:55;;;;;;;9.50;6.40;;;;;;;22.14;62.08;99919.64;212341;1286;142666;-67
2022/10/08 10:54:16;;;;;;;10.30;7.30;;;;;;;22.11;61.50;99922.89;213801;1285;139305;-68
2022/10/08 10:59:43;;;;;;;15.90;7.00;;;;;;;22.13;61.55;99917.33;212406;1285;139187;-67
2022/10/08 11:05:14;;;;;;;9.40;6.30;;;;;;;22.13;60.27;99912.60;213741;1285;139804;-68
2022/10/08 11:10:39;;;;;;;6.60;5.90;;;;;;;21.79;60.19;99911.55;213748;1285;139124;-67
2022/10/08 11:16:06;;;;;;;12.10;7.60;;;;;;;21.46;59.94;99906.77;213322;1285;140422;-67
2022/10/08 11:21:24;;;;;;;7.60;6.60;;;;;;;21.27;60.06;99898.11;213533;1285;139838;-67
2022/10/08 11:26:43;;;;;;;14.20;6.60;;;;;;;21.34;60.33;99895.48;213948;1285;139390;-67
2022/10/08 11:31:50;;;;;;;8.30;7.30;;;;;;;21.44;60.16;99888.64;214593;1280;139843;-66
2022/10/08 11:37:28;;;;;;;11.40;7.60;;;;;;;21.48;60.26;99885.13;214369;1281;247324;-66
2022/10/08 11:43:06;;;;;;;9.90;7.20;;;;;;;21.75;60.42;99885.37;214280;1281;140270;-66
2022/10/08 11:48:36;;;;;;;7.60;6.90;;;;;;;21.77;59.83;99884.63;214754;1281;140813;-67
2022/10/08 11:53:40;;;;;;;8.70;6.80;;;;;;;21.48;59.63;99881.40;214804;1281;139842;-66
2022/10/08 11:58:52;;;;;;;10.10;7.80;;;;;;;21.15;60.09;99874.08;214695;1281;139187;-68
2022/10/08 12:04:17;;;;;;;6.10;5.50;;;;;;;20.94;60.43;99877.83;215291;1276;139893;-67
2022/10/08 12:09:23;;;;;;;8.90;7.80;;;;;;;20.83;60.55;99872.95;215095;1279;141073;-66
2022/10/08 12:14:32;;;;;;;10.40;8.40;;;;;;;20.77;61.00;99870.79;215775;1276;140102;-67
2022/10/08 12:19:35;;;;;;;7.50;6.90;;;;;;;20.86;61.30;99865.34;215253;1276;139930;-67
2022/10/08 12:24:39;;;;;;;9.30;7.90;;;;;;;20.95;61.14;99857.17;215791;1276;140259;-67
2022/10/08 12:30:02;;;;;;;7.30;6.20;;;;;;;20.88;60.91;99854.21;215410;1277;139091;-65
2022/10/08 12:35:26;;;;;;;19.10;7.20;;;;;;;20.53;60.71;99854.36;215330;1277;139555;-66
2022/10/08 12:41:17;;;;;;;8.70;7.90;;;;;;;20.15;60.72;99845.16;215210;1276;139477;-66
2022/10/08 12:46:26;;;;;;;8.30;7.50;;;;;;;20.15;61.43;99842.08;215697;1276;139969;-65
2022/10/08 12:51:53;;;;;;;13.20;8.30;;;;;;;20.41;61.51;99834.09;215419;1276;140290;-65
2022/10/08 12:56:59;;;;;;;13.60;8.40;;;;;;;20.36;61.32;99840.18;215404;1276;140528;-65
2022/10/08 13:02:23;;;;;;;11.40;7.90;;;;;;;20.30;61.56;99842.38;215452;1276;139972;-65
2022/10/08 13:07:33;;;;;;;9.10;8.10;;;;;;;20.26;61.53;99843.63;213761;1276;141460;-68
2022/10/08 13:12:37;;;;;;;10.70;8.70;;;;;;;20.11;61.83;99841.27;212777;1276;139957;-66
2022/10/08 13:17:41;;;;;;;9.40;7.80;;;;;;;20.13;62.35;99833.24;213163;1276;141105;-65
2022/10/08 13:22:49;;;;;;;12.90;9.70;;;;;;;20.21;62.48;99830.23;215644;1276;141992;-67
2022/10/08 13:28:12;;;;;;;10.80;9.40;;;;;;;20.36;62.66;99825.56;215542;1276;140213;-65
2022/10/08 13:33:19;;;;;;;10.10;8.60;;;;;;;20.31;62.56;99824.21;215336;1277;139564;-67
2022/10/08 13:38:31;;;;;;;9.40;8.60;;;;;;;20.10;62.37;99834.30;215531;1276;139195;-67
2022/10/08 13:43:38;;;;;;;10.60;9.70;;;;;;;19.82;62.51;99833.54;215704;1277;140246;-66
2022/10/08 13:48:52;;;;;;;14.50;9.40;;;;;;;19.60;62.76;99833.42;215478;1277;141986;-65
2022/10/08 13:54:09;;;;;;;9.80;8.80;;;;;;;19.41;63.20;99832.73;215739;1276;139505;-65
2022/10/08 13:59:20;;;;;;;13.20;9.10;;;;;;;19.38;63.61;99832.30;215533;1276;140720;-65
2022/10/08 14:04:34;;;;;;;;;;;;;;;19.35;63.51;99835.52;215430;1277;139826;-65
2022/10/08 14:09:41;;;;;;;14.50;8.60;;;;;;;19.21;63.96;99839.93;216153;1276;126747;-66
2022/10/08 14:14:47;;;;;;;12.80;10.60;;;;;;;19.13;64.18;99843.04;215732;1276;140997;-65
2022/10/08 14:19:54;;;;;;;10.90;9.80;;;;;;;19.06;64.31;99840.63;215715;1276;141396;-67
2022/10/08 14:25:01;;;;;;;15.70;9.60;;;;;;;18.99;64.57;99838.23;215519;1276;140897;-66
2022/10/08 14:30:10;;;;;;;13.80;9.40;;;;;;;18.88;64.61;99845.17;215421;1276;140523;-66
2022/10/08 14:35:19;;;;;;;18.90;10.10;;;;;;;18.78;64.76;99843.59;214916;1277;142984;-67
2022/10/08 14:40:27;;;;;;;8.00;7.20;;;;;;;18.67;64.80;99836.77;215203;1277;140105;-67
2022/10/08 14:45:35;;;;;;;13.20;10.80;;;;;;;18.48;64.86;99846.22;215448;1276;139227;-66
2022/10/08 14:50:49;;;;;;;12.00;9.80;;;;;;;18.32;65.28;99859.33;215668;1276;139690;-66
2022/10/08 14:55:57;;;;;;;21.70;10.50;;;;;;;18.20;65.55;99863.58;215325;1276;139765;-65
2022/10/08 15:01:18;;;;;;;13.60;10.10;;;;;;;18.11;65.80;99876.25;215591;1276;140445;-65
2022/10/08 15:06:25;;;;;;;17.60;11.20;;;;;;;18.01;65.92;99873.48;215305;1276;140382;-65
2022/10/08 15:11:38;;;;;;;15.30;11.40;;;;;;;17.95;66.18;99867.76;214243;1276;139597;-65
2022/10/08 15:16:49;;;;;;;16.30;11.40;;;;;;;17.88;66.40;99866.49;215410;1276;141337;-66
2022/10/08 15:21:58;;;;;;;24.00;11.10;;;;;;;17.80;66.68;99868.97;215619;1276;140868;-65
2022/10/08 15:27:04;;;;;;;;;;;;;;;17.69;66.94;99877.16;215360;1277;141588;-65
2022/10/08 15:32:11;;;;;;;16.60;10.80;;;;;;;17.58;67.20;99883.57;216065;1276;126276;-65
2022/10/08 15:37:19;;;;;;;17.00;11.70;;;;;;;17.49;67.37;99892.02;215460;1276;142552;-65
2022/10/08 15:42:30;;;;;;;15.70;11.80;;;;;;;17.35;67.38;99887.07;215498;1276;140262;-66
2022/10/08 15:47:41;;;;;;;15.90;11.20;;;;;;;17.28;67.69;99885.58;215774;1276;140225;-66
2022/10/08 15:52:49;;;;;;;17.90;11.50;;;;;;;17.16;67.66;99894.23;215469;1276;141041;-65
2022/10/08 15:57:54;;;;;;;14.50;11.30;;;;;;;17.07;67.83;99895.30;215271;1277;151983;-66
2022/10/08 16:03:03;;;;;;;20.40;11.10;;;;;;;17.03;67.81;99894.60;215509;1276;230887;-66
2022/10/08 16:08:11;;;;;;;12.90;11.30;;;;;;;16.94;67.97;99902.27;215272;1276;139869;-67
2022/10/08 16:13:19;;;;;;;13.90;11.20;;;;;;;16.88;68.03;99917.29;215593;1276;139979;-67
2022/10/08 16:18:28;;;;;;;17.20;11.10;;;;;;;16.83;68.03;99918.27;215480;1276;141824;-65
2022/10/08 16:23:37;;;;;;;12.00;10.00;;;;;;;16.77;68.10;99923.90;215386;1276;140481;-65
2022/10/08 16:28:43;;;;;;;18.90;11.30;;;;;;;16.70;68.30;99929.55;214509;1276;140540;-66
2022/10/08 16:34:01;;;;;;;11.80;9.20;;;;;;;16.64;68.43;99926.35;215651;1276;139767;-66
2022/10/08 16:39:12;;;;;;;21.00;11.00;;;;;;;16.53;68.47;99927.20;215546;1276;140819;-67
2022/10/08 16:44:17;;;;;;;;;;;;;;;16.50;68.62;99935.61;215275;1276;141196;-67
2022/10/08 16:49:28;;;;;;;12.40;9.20;;;;;;;16.47;68.61;99944.31;216047;1276;126187;-66
2022/10/08 16:54:34;;;;;;;10.40;8.10;;;;;;;16.46;68.48;99951.52;213548;1276;141105;-65
2022/10/08 16:59:41;;;;;;;;;;;;;;;16.40;68.09;99962.66;215600;1277;139504;-65
2022/10/08 17:04:46;;;;;;;9.60;7.30;;;;;;;16.27;67.84;99970.43;216203;1277;125381;-66
2022/10/08 17:09:51;;;;;;;6.70;6.00;;;;;;;16.18;67.68;99978.81;214925;1276;140346;-65
2022/10/08 17:14:56;;;;;;;8.50;7.30;;;;;;;16.09;67.16;99981.37;215282;1276;141169;-66
2022/10/08 17:20:00;;;;;;;7.60;6.40;;;;;;;16.04;67.06;99983.77;215551;1276;140119;-66
2022/10/08 17:25:05;;;;;;;11.90;7.10;;;;;;;15.99;66.81;99992.23;215591;1276;139374;-65
2022/10/08 17:30:09;;;;;;;9.60;5.50;;;;;;;15.92;66.87;99995.45;215636;1276;139753;-66
2022/10/08 17:35:14;;;;;;;11.00;6.60;;;;;;;15.80;66.62;100005.46;215476;1276;140095;-65
2022/10/08 17:40:18;;;;;;;10.40;7.20;;;;;;;15.66;66.55;100008.52;215240;1277;140088;-65
2022/10/08 17:45:22;;;;;;;8.50;6.10;;;;;;;15.61;66.68;100007.84;215141;1276;140209;-65
2022/10/08 17:50:26;;;;;;;11.20;6.20;;;;;;;15.57;66.72;100015.77;214982;1277;139921;-65
2022/10/08 17:55:32;;;;;;;10.60;6.70;;;;;;;15.51;66.72;100018.02;215706;1276;140027;-66
2022/10/08 18:00:36;;;;;;;9.30;7.10;;;;;;;15.47;66.95;100019.40;215380;1276;139742;-65
2022/10/08 18:05:40;;;;;;;11.90;6.60;;;;;;;15.41;66.83;100024.30;215677;1276;139573;-66
2022/10/08 18:10:45;;;;;;;12.30;7.00;;;;;;;15.38;66.80;100030.95;215455;1277;141367;-64
2022/10/08 18:15:48;;;;;;;13.10;8.00;;;;;;;15.35;66.81;100033.27;215591;1276;141272;-65
2022/10/08 18:20:58;;;;;;;6.50;5.80;;;;;;;15.30;66.87;100046.03;215746;1276;140670;-66
2022/10/08 18:26:14;;;;;;;7.90;6.30;;;;;;;15.17;66.90;100048.84;215632;1276;140681;-65
2022/10/08 18:31:21;;;;;;;15.20;8.90;;;;;;;15.05;67.11;100058.41;214917;1276;140638;-63
2022/10/08 18:36:29;;;;;;;9.80;7.50;;;;;;;15.00;67.23;100065.02;215372;1276;141401;-64
2022/10/08 18:41:40;;;;;;;12.30;8.50;;;;;;;14.98;67.30;100060.19;215551;1277;140351;-65
2022/10/08 18:46:44;;;;;;;10.20;6.60;;;;;;;14.95;67.35;100067.09;215377;1277;140875;-64
2022/10/08 18:51:48;;;;;;;12.80;6.60;;;;;;;14.87;67.10;100072.71;215496;1277;142830;-64
2022/10/08 18:56:55;;;;;;;18.70;6.80;;;;;;;14.80;67.03;100072.11;215151;1277;143343;-64
2022/10/08 19:01:59;;;;;;;;;;;;;;;14.72;67.01;100078.73;215397;1277;142572;-63
2022/10/08 19:07:05;;;;;;;15.30;7.10;;;;;;;14.57;67.12;100080.02;213205;1277;126956;-64
2022/10/08 19:12:10;;;;;;;9.30;5.80;;;;;;;14.48;67.07;100089.15;214908;1277;139949;-63
2022/10/08 19:17:14;;;;;;;13.70;7.30;;;;;;;14.39;67.19;100095.86;215505;1277;140976;-63
2022/10/08 19:22:19;;;;;;;7.70;6.20;;;;;;;14.35;67.07;100098.75;213911;1276;140002;-64
2022/10/08 19:27:23;;;;;;;10.20;5.80;;;;;;;14.33;67.17;100102.43;214437;1275;140499;-64
2022/10/08 19:32:27;;;;;;;11.40;6.00;;;;;;;14.27;67.16;100108.52;215125;1274;140628;-64
2022/10/08 19:37:35;;;;;;;9.30;6.20;;;;;;;14.19;67.17;100112.23;215623;1275;140818;-65
2022/10/08 19:42:39;;;;;;;10.70;6.20;;;;;;;14.13;67.54;100118.11;214087;1276;139733;-65
2022/10/08 19:47:45;;;;;;;12.90;7.00;;;;;;;14.05;67.48;100121.91;215629;1276;139939;-65
2022/10/08 19:52:50;;;;;;;9.90;7.00;;;;;;;14.02;67.66;100130.83;215467;1276;140768;-65
2022/10/08 19:57:54;;;;;;;14.70;8.80;;;;;;;14.00;67.97;100134.98;215561;1276;141265;-64
2022/10/08 20:02:58;;;;;;;11.90;7.70;;;;;;;14.00;68.04;100146.58;215537;1276;140314;-63
2022/10/08 20:08:06;;;;;;;18.60;8.60;;;;;;;14.01;68.20;100153.11;215575;1276;140073;-64
2022/10/08 20:13:11;;;;;;;11.60;8.10;;;;;;;14.00;68.16;100160.02;215555;1276;140516;-64
2022/10/08 20:18:16;;;;;;;16.40;8.10;;;;;;;13.99;68.24;100168.54;215607;1275;141192;-64
2022/10/08 20:23:21;;;;;;;9.90;5.20;;;;;;;13.98;68.34;100178.33;215753;1274;151458;-64
2022/10/08 20:28:26;;;;;;;10.00;5.90;;;;;;;13.94;68.54;100180.02;215498;1275;140097;-64
2022/10/08 20:33:31;;;;;;;12.00;5.10;;;;;;;13.88;68.41;100188.23;215573;1275;140826;-63
2022/10/08 20:38:37;;;;;;;7.20;5.60;;;;;;;13.84;68.51;100194.77;215553;1276;140457;-65
2022/10/08 20:43:42;;;;;;;12.50;6.40;;;;;;;13.77;68.57;100203.18;215631;1275;140160;-64
2022/10/08 20:48:46;;;;;;;6.80;4.50;;;;;;;13.70;68.59;100201.27;215909;1274;139742;-64
2022/10/08 20:54:12;;;;;;;9.30;4.40;;;;;;;13.61;68.90;100204.34;215821;1275;140485;-64
2022/10/08 20:59:18;;;;;;;9.20;4.50;;;;;;;13.53;68.66;100202.95;215532;1275;140599;-64
2022/10/08 21:04:23;;;;;;;9.40;4.40;;;;;;;13.43;68.97;100216.35;215951;1271;139755;-64
2022/10/08 21:09:27;;;;;;;9.60;4.80;;;;;;;13.36;69.31;100222.55;216192;1273;140338;-64
2022/10/08 21:14:31;;;;;;;6.20;3.90;;;;;;;13.32;69.55;100232.70;215568;1273;139716;-65
2022/10/08 21:19:35;;;;;;;9.80;4.10;;;;;;;13.24;69.38;100234.48;215823;1273;141330;-65
2022/10/08 21:24:40;;;;;;;18.50;4.90;;;;;;;13.14;69.68;100239.80;215950;1271;140952;-65
2022/10/08 21:29:44;;;;;;;9.30;3.80;;;;;;;13.04;69.76;100239.42;216162;1273;140773;-65
2022/10/08 21:34:51;;;;;;;6.60;2.70;;;;;;;12.95;69.75;100249.85;216049;1272;139728;-64
2022/10/08 21:39:56;;;;;;;10.00;4.30;;;;;;;12.90;70.25;100257.16;215904;1275;141341;-65
2022/10/08 21:45:01;;;;;;;7.50;3.20;;;;;;;12.91;70.35;100258.91;216077;1272;141045;-65
2022/10/08 21:50:07;;;;;;;6.50;2.70;;;;;;;12.90;70.11;100265.38;216161;1272;150308;-64
2022/10/08 21:55:11;;;;;;;5.30;2.60;;;;;;;12.83;70.20;100259.98;215964;1273;139508;-64
2022/10/08 22:00:30;;;;;;;5.10;2.60;;;;;;;12.79;70.50;100265.27;215304;1273;1072263;-65
2022/10/08 22:05:35;;;;;;;7.50;3.60;;;;;;;12.71;70.39;100269.97;216089;1272;139659;-64
2022/10/08 22:10:40;;;;;;;4.20;2.60;;;;;;;12.64;70.55;100268.14;216160;1273;140355;-64
2022/10/08 22:15:56;;;;;;;7.80;3.30;;;;;;;12.55;70.64;100279.88;216081;1273;140496;-64
2022/10/08 22:21:03;;;;;;;5.00;3.30;;;;;;;12.41;70.66;100282.80;216173;1273;140058;-64
2022/10/08 22:26:13;;;;;;;3.00;2.70;;;;;;;12.30;71.08;100283.06;215969;1273;141471;-64
2022/10/08 22:31:18;;;;;;;5.40;3.30;;;;;;;12.26;71.35;100282.91;215842;1273;141146;-64
2022/10/08 22:36:29;;;;;;;6.00;3.00;;;;;;;12.28;71.95;100288.73;216029;1272;140501;-63
2022/10/08 22:41:34;;;;;;;6.40;3.60;;;;;;;12.21;71.47;100288.17;216186;1273;139777;-64
2022/10/08 22:46:38;;;;;;;5.20;2.90;;;;;;;12.06;71.81;100288.29;214433;1273;139726;-65
2022/10/08 22:51:42;;;;;;;7.10;3.50;;;;;;;11.97;71.95;100288.06;216108;1273;140975;-65
2022/10/08 22:56:47;;;;;;;5.30;3.20;;;;;;;11.87;72.22;100296.10;216140;1273;141199;-65
2022/10/08 23:01:51;;;;;;;7.60;3.80;;;;;;;11.79;72.40;100307.96;215724;1274;142002;-64
2022/10/08 23:06:55;;;;;;;10.60;4.20;;;;;;;11.71;72.42;100308.70;215367;1271;141245;-64
2022/10/08 23:11:59;;;;;;;11.10;4.10;;;;;;;11.62;72.37;100309.34;215909;1273;140001;-64
2022/10/08 23:17:03;;;;;;;6.60;3.60;;;;;;;11.53;72.65;100310.27;215308;1273;140439;-63